sensor_id;sensor_type;location;lat;lon;timestamp;temperature;humidity
11142;DHT22;5625;50.122;19.864;2023-05-07T00:01:19;11.70;99.90
11142;DHT22;5625;50.122;19.864;2023-05-07T00:03:50;11.60;99.90
11142;DHT22;5625;50.122;19.864;2023-05-07T00:06:18;11.60;99.90
11142;DHT22;5625;50.122;19.864;2023-05-07T00:08:47;11.60;99.90
11142;DHT22;5625;50.122;19.864;2023-05-07T00:11:15;11.60;99.90
11142;DHT22;5625;50.122;19.864;2023-05-07T00:13:43;11.60;99.90
11142;DHT22;5625;50.122;19.864;2023-05-07T00:16:12;11.60;99.90
11142;DHT22;5625;50.122;19.864;2023-05-07T00:18:40;11.60;99.90
11142;DHT22;5625;50.122;19.864;2023-05-07T00:21:08;11.60;99.90
11142;DHT22;5625;50.122;19.864;2023-05-07T00:23:36;11.60;99.90
11142;DHT22;5625;50.122;19.864;2023-05-07T00:26:04;11.60;99.90
11142;DHT22;5625;50.122;19.864;2023-05-07T00:28:32;11.60;99.90
11142;DHT22;5625;50.122;19.864;2023-05-07T00:31:01;11.60;99.90
11142;DHT22;5625;50.122;19.864;2023-05-07T00:33:32;11.60;99.90
11142;DHT22;5625;50.122;19.864;2023-05-07T00:36:00;11.60;99.90
11142;DHT22;5625;50.122;19.864;2023-05-07T00:38:28;11.60;99.90
11142;DHT22;5625;50.122;19.864;2023-05-07T00:40:56;11.60;99.90
11142;DHT22;5625;50.122;19.864;2023-05-07T00:43:24;11.50;99.90
11142;DHT22;5625;50.122;19.864;2023-05-07T00:45:54;11.50;99.90
11142;DHT22;5625;50.122;19.864;2023-05-07T00:48:23;11.50;99.90
11142;DHT22;5625;50.122;19.864;2023-05-07T00:50:54;11.50;99.90
11142;DHT22;5625;50.122;19.864;2023-05-07T00:53:22;11.50;99.90
11142;DHT22;5625;50.122;19.864;2023-05-07T00:55:50;11.50;99.90
11142;DHT22;5625;50.122;19.864;2023-05-07T00:58:18;11.40;99.90
11142;DHT22;5625;50.122;19.864;2023-05-07T01:00:47;11.40;99.90
11142;DHT22;5625;50.122;19.864;2023-05-07T01:03:15;11.40;99.90
11142;DHT22;5625;50.122;19.864;2023-05-07T01:05:46;11.40;99.90
11142;DHT22;5625;50.122;19.864;2023-05-07T01:08:18;11.40;99.90
11142;DHT22;5625;50.122;19.864;2023-05-07T01:10:46;11.40;99.90
11142;DHT22;5625;50.122;19.864;2023-05-07T01:13:15;11.40;99.90
11142;DHT22;5625;50.122;19.864;2023-05-07T01:15:44;11.40;99.90
11142;DHT22;5625;50.122;19.864;2023-05-07T01:18:12;11.40;99.90
11142;DHT22;5625;50.122;19.864;2023-05-07T01:20:40;11.30;99.90
11142;DHT22;5625;50.122;19.864;2023-05-07T01:23:11;11.30;99.90
11142;DHT22;5625;50.122;19.864;2023-05-07T01:25:39;11.30;99.90
11142;DHT22;5625;50.122;19.864;2023-05-07T01:28:07;11.20;99.90
11142;DHT22;5625;50.122;19.864;2023-05-07T01:30:36;11.20;99.90
11142;DHT22;5625;50.122;19.864;2023-05-07T01:33:08;11.20;99.90
11142;DHT22;5625;50.122;19.864;2023-05-07T01:35:40;11.10;99.90
11142;DHT22;5625;50.122;19.864;2023-05-07T01:38:11;11.10;99.90
11142;DHT22;5625;50.122;19.864;2023-05-07T01:40:40;11.10;99.90
11142;DHT22;5625;50.122;19.864;2023-05-07T01:43:09;11.10;99.90
11142;DHT22;5625;50.122;19.864;2023-05-07T01:45:38;11.10;99.90
11142;DHT22;5625;50.122;19.864;2023-05-07T01:48:07;11.00;99.90
11142;DHT22;5625;50.122;19.864;2023-05-07T01:50:37;11.00;99.90
11142;DHT22;5625;50.122;19.864;2023-05-07T01:53:05;10.90;99.90
11142;DHT22;5625;50.122;19.864;2023-05-07T01:55:34;10.90;99.90
11142;DHT22;5625;50.122;19.864;2023-05-07T01:58:03;10.80;99.90
11142;DHT22;5625;50.122;19.864;2023-05-07T02:00:31;10.80;99.90
11142;DHT22;5625;50.122;19.864;2023-05-07T02:02:59;10.80;99.90
11142;DHT22;5625;50.122;19.864;2023-05-07T02:05:28;10.80;99.90
11142;DHT22;5625;50.122;19.864;2023-05-07T02:07:56;10.80;99.90
11142;DHT22;5625;50.122;19.864;2023-05-07T02:10:24;10.80;99.90
11142;DHT22;5625;50.122;19.864;2023-05-07T02:12:53;10.70;99.90
11142;DHT22;5625;50.122;19.864;2023-05-07T02:15:21;10.60;99.90
11142;DHT22;5625;50.122;19.864;2023-05-07T02:17:59;10.60;99.90
11142;DHT22;5625;50.122;19.864;2023-05-07T02:20:28;10.60;99.90
11142;DHT22;5625;50.122;19.864;2023-05-07T02:22:56;10.60;99.90
11142;DHT22;5625;50.122;19.864;2023-05-07T02:25:24;10.60;99.90
11142;DHT22;5625;50.122;19.864;2023-05-07T02:27:53;10.60;99.90
11142;DHT22;5625;50.122;19.864;2023-05-07T02:30:22;10.50;99.90
11142;DHT22;5625;50.122;19.864;2023-05-07T02:32:50;10.60;99.90
11142;DHT22;5625;50.122;19.864;2023-05-07T02:35:18;10.50;99.90
11142;DHT22;5625;50.122;19.864;2023-05-07T02:37:46;10.50;99.90
11142;DHT22;5625;50.122;19.864;2023-05-07T02:40:15;10.60;99.90
11142;DHT22;5625;50.122;19.864;2023-05-07T02:42:43;10.50;99.90
11142;DHT22;5625;50.122;19.864;2023-05-07T02:45:12;10.50;99.90
11142;DHT22;5625;50.122;19.864;2023-05-07T02:47:41;10.40;99.90
11142;DHT22;5625;50.122;19.864;2023-05-07T02:50:09;10.40;99.90
11142;DHT22;5625;50.122;19.864;2023-05-07T02:52:38;10.40;99.90
11142;DHT22;5625;50.122;19.864;2023-05-07T02:55:07;10.40;99.90
11142;DHT22;5625;50.122;19.864;2023-05-07T02:57:35;10.40;99.90
11142;DHT22;5625;50.122;19.864;2023-05-07T03:00:13;10.40;99.90
11142;DHT22;5625;50.122;19.864;2023-05-07T03:02:41;10.40;99.90
11142;DHT22;5625;50.122;19.864;2023-05-07T03:05:09;10.40;99.90
11142;DHT22;5625;50.122;19.864;2023-05-07T03:07:38;10.40;99.90
11142;DHT22;5625;50.122;19.864;2023-05-07T03:10:07;10.40;99.90
11142;DHT22;5625;50.122;19.864;2023-05-07T03:12:35;10.30;99.90
11142;DHT22;5625;50.122;19.864;2023-05-07T03:15:05;10.30;99.90
11142;DHT22;5625;50.122;19.864;2023-05-07T03:17:34;10.30;99.90
11142;DHT22;5625;50.122;19.864;2023-05-07T03:20:03;10.30;99.90
11142;DHT22;5625;50.122;19.864;2023-05-07T03:22:31;10.20;99.90
11142;DHT22;5625;50.122;19.864;2023-05-07T03:24:59;10.20;99.90
11142;DHT22;5625;50.122;19.864;2023-05-07T03:27:28;10.20;99.90
11142;DHT22;5625;50.122;19.864;2023-05-07T03:29:56;10.20;99.90
11142;DHT22;5625;50.122;19.864;2023-05-07T03:32:24;10.20;99.90
11142;DHT22;5625;50.122;19.864;2023-05-07T03:34:53;10.20;99.90
11142;DHT22;5625;50.122;19.864;2023-05-07T03:37:22;10.10;99.90
11142;DHT22;5625;50.122;19.864;2023-05-07T03:39:50;10.10;99.90
11142;DHT22;5625;50.122;19.864;2023-05-07T03:42:18;10.10;99.90
11142;DHT22;5625;50.122;19.864;2023-05-07T03:44:46;10.10;99.90
11142;DHT22;5625;50.122;19.864;2023-05-07T03:47:14;10.10;99.90
11142;DHT22;5625;50.122;19.864;2023-05-07T03:49:42;10.10;99.90
11142;DHT22;5625;50.122;19.864;2023-05-07T03:52:11;10.10;99.90
11142;DHT22;5625;50.122;19.864;2023-05-07T03:54:40;10.20;99.90
11142;DHT22;5625;50.122;19.864;2023-05-07T03:57:08;10.10;99.90
11142;DHT22;5625;50.122;19.864;2023-05-07T03:59:37;10.10;99.90
11142;DHT22;5625;50.122;19.864;2023-05-07T04:02:05;10.00;99.90
11142;DHT22;5625;50.122;19.864;2023-05-07T04:04:33;10.00;99.90
11142;DHT22;5625;50.122;19.864;2023-05-07T04:07:01;10.00;99.90
11142;DHT22;5625;50.122;19.864;2023-05-07T04:09:31;10.00;99.90
11142;DHT22;5625;50.122;19.864;2023-05-07T04:11:59;9.90;99.90
11142;DHT22;5625;50.122;19.864;2023-05-07T04:14:27;9.90;99.90
11142;DHT22;5625;50.122;19.864;2023-05-07T04:16:57;9.90;99.90
11142;DHT22;5625;50.122;19.864;2023-05-07T04:19:25;9.90;99.90
11142;DHT22;5625;50.122;19.864;2023-05-07T04:21:53;9.90;99.90
11142;DHT22;5625;50.122;19.864;2023-05-07T04:24:21;9.90;99.90
11142;DHT22;5625;50.122;19.864;2023-05-07T04:26:50;9.90;99.90
11142;DHT22;5625;50.122;19.864;2023-05-07T04:29:19;10.00;99.90
11142;DHT22;5625;50.122;19.864;2023-05-07T04:31:47;10.00;99.90
11142;DHT22;5625;50.122;19.864;2023-05-07T04:34:15;9.90;99.90
11142;DHT22;5625;50.122;19.864;2023-05-07T04:36:43;10.00;99.90
11142;DHT22;5625;50.122;19.864;2023-05-07T04:39:12;10.00;99.90
11142;DHT22;5625;50.122;19.864;2023-05-07T04:41:40;9.90;99.90
11142;DHT22;5625;50.122;19.864;2023-05-07T04:44:10;9.90;99.90
11142;DHT22;5625;50.122;19.864;2023-05-07T04:46:38;9.80;99.90
11142;DHT22;5625;50.122;19.864;2023-05-07T04:49:07;9.80;99.90
11142;DHT22;5625;50.122;19.864;2023-05-07T04:51:35;9.80;99.90
11142;DHT22;5625;50.122;19.864;2023-05-07T04:54:04;9.70;99.90
11142;DHT22;5625;50.122;19.864;2023-05-07T04:56:33;9.70;99.90
11142;DHT22;5625;50.122;19.864;2023-05-07T04:59:03;9.70;99.90
11142;DHT22;5625;50.122;19.864;2023-05-07T05:01:33;9.70;99.90
11142;DHT22;5625;50.122;19.864;2023-05-07T05:04:01;9.70;99.90
11142;DHT22;5625;50.122;19.864;2023-05-07T05:06:29;9.70;99.90
11142;DHT22;5625;50.122;19.864;2023-05-07T05:08:58;9.70;99.90
11142;DHT22;5625;50.122;19.864;2023-05-07T05:11:26;9.80;99.90
11142;DHT22;5625;50.122;19.864;2023-05-07T05:13:54;9.80;99.90
11142;DHT22;5625;50.122;19.864;2023-05-07T05:16:22;9.80;99.90
11142;DHT22;5625;50.122;19.864;2023-05-07T05:18:51;9.80;99.90
11142;DHT22;5625;50.122;19.864;2023-05-07T05:21:20;9.70;99.90
11142;DHT22;5625;50.122;19.864;2023-05-07T05:23:48;9.80;99.90
11142;DHT22;5625;50.122;19.864;2023-05-07T05:26:16;9.80;99.90
11142;DHT22;5625;50.122;19.864;2023-05-07T05:28:45;9.70;99.90
11142;DHT22;5625;50.122;19.864;2023-05-07T05:31:13;9.60;99.90
11142;DHT22;5625;50.122;19.864;2023-05-07T05:33:43;9.60;99.90
11142;DHT22;5625;50.122;19.864;2023-05-07T05:36:13;9.60;99.90
11142;DHT22;5625;50.122;19.864;2023-05-07T05:38:41;9.60;99.90
11142;DHT22;5625;50.122;19.864;2023-05-07T05:41:09;9.60;99.90
11142;DHT22;5625;50.122;19.864;2023-05-07T05:43:37;9.50;99.90
11142;DHT22;5625;50.122;19.864;2023-05-07T05:46:05;9.50;99.90
11142;DHT22;5625;50.122;19.864;2023-05-07T05:48:34;9.40;99.90
11142;DHT22;5625;50.122;19.864;2023-05-07T05:51:04;9.40;99.90
11142;DHT22;5625;50.122;19.864;2023-05-07T05:53:35;9.40;99.90
11142;DHT22;5625;50.122;19.864;2023-05-07T05:56:04;9.30;99.90
11142;DHT22;5625;50.122;19.864;2023-05-07T05:58:32;9.30;99.90
11142;DHT22;5625;50.122;19.864;2023-05-07T06:01:00;9.30;99.90
11142;DHT22;5625;50.122;19.864;2023-05-07T06:03:30;9.30;99.90
11142;DHT22;5625;50.122;19.864;2023-05-07T06:05:59;9.30;99.90
11142;DHT22;5625;50.122;19.864;2023-05-07T06:08:29;9.30;99.90
11142;DHT22;5625;50.122;19.864;2023-05-07T06:10:58;9.30;99.90
11142;DHT22;5625;50.122;19.864;2023-05-07T06:13:29;9.30;99.90
11142;DHT22;5625;50.122;19.864;2023-05-07T06:15:57;9.30;99.90
11142;DHT22;5625;50.122;19.864;2023-05-07T06:18:25;9.20;99.90
11142;DHT22;5625;50.122;19.864;2023-05-07T06:20:54;9.20;99.90
11142;DHT22;5625;50.122;19.864;2023-05-07T06:23:22;9.20;99.90
11142;DHT22;5625;50.122;19.864;2023-05-07T06:25:50;9.30;99.90
11142;DHT22;5625;50.122;19.864;2023-05-07T06:28:20;9.30;99.90
11142;DHT22;5625;50.122;19.864;2023-05-07T06:30:50;9.20;99.90
11142;DHT22;5625;50.122;19.864;2023-05-07T06:33:18;9.20;99.90
11142;DHT22;5625;50.122;19.864;2023-05-07T06:35:47;9.20;99.90
11142;DHT22;5625;50.122;19.864;2023-05-07T06:38:15;9.10;99.90
11142;DHT22;5625;50.122;19.864;2023-05-07T06:40:44;9.20;99.90
11142;DHT22;5625;50.122;19.864;2023-05-07T06:43:17;9.20;99.90
11142;DHT22;5625;50.122;19.864;2023-05-07T06:45:47;9.20;99.90
11142;DHT22;5625;50.122;19.864;2023-05-07T06:48:15;9.20;99.90
11142;DHT22;5625;50.122;19.864;2023-05-07T06:50:43;9.20;99.90
11142;DHT22;5625;50.122;19.864;2023-05-07T06:53:11;9.20;99.90
11142;DHT22;5625;50.122;19.864;2023-05-07T06:55:39;9.30;99.90
11142;DHT22;5625;50.122;19.864;2023-05-07T06:58:13;9.30;99.90
11142;DHT22;5625;50.122;19.864;2023-05-07T07:00:41;9.30;99.90
11142;DHT22;5625;50.122;19.864;2023-05-07T07:03:10;9.30;99.90
11142;DHT22;5625;50.122;19.864;2023-05-07T07:05:40;9.30;99.90
11142;DHT22;5625;50.122;19.864;2023-05-07T07:08:11;9.30;99.90
11142;DHT22;5625;50.122;19.864;2023-05-07T07:10:39;9.30;99.90
11142;DHT22;5625;50.122;19.864;2023-05-07T07:13:07;9.30;99.90
11142;DHT22;5625;50.122;19.864;2023-05-07T07:15:36;9.30;99.90
11142;DHT22;5625;50.122;19.864;2023-05-07T07:18:05;9.30;99.90
11142;DHT22;5625;50.122;19.864;2023-05-07T07:20:34;9.30;99.90
11142;DHT22;5625;50.122;19.864;2023-05-07T07:23:02;9.30;99.90
11142;DHT22;5625;50.122;19.864;2023-05-07T07:25:30;9.30;99.90
11142;DHT22;5625;50.122;19.864;2023-05-07T07:27:58;9.30;99.90
11142;DHT22;5625;50.122;19.864;2023-05-07T07:30:26;9.40;99.90
11142;DHT22;5625;50.122;19.864;2023-05-07T07:32:54;9.40;99.90
11142;DHT22;5625;50.122;19.864;2023-05-07T07:35:28;9.30;99.90
11142;DHT22;5625;50.122;19.864;2023-05-07T07:37:58;9.40;99.90
11142;DHT22;5625;50.122;19.864;2023-05-07T07:40:26;9.40;99.90
11142;DHT22;5625;50.122;19.864;2023-05-07T07:42:54;9.40;99.90
11142;DHT22;5625;50.122;19.864;2023-05-07T07:45:22;9.40;99.90
11142;DHT22;5625;50.122;19.864;2023-05-07T07:47:51;9.50;99.90
11142;DHT22;5625;50.122;19.864;2023-05-07T07:50:20;9.50;99.90
11142;DHT22;5625;50.122;19.864;2023-05-07T07:53:09;9.50;99.90
11142;DHT22;5625;50.122;19.864;2023-05-07T07:55:38;9.50;99.90
11142;DHT22;5625;50.122;19.864;2023-05-07T07:58:06;9.50;99.90
11142;DHT22;5625;50.122;19.864;2023-05-07T08:00:34;9.60;99.90
11142;DHT22;5625;50.122;19.864;2023-05-07T08:03:05;9.50;99.90
11142;DHT22;5625;50.122;19.864;2023-05-07T08:05:35;9.60;99.90
11142;DHT22;5625;50.122;19.864;2023-05-07T08:08:06;9.50;99.90
11142;DHT22;5625;50.122;19.864;2023-05-07T08:10:35;9.50;99.90
11142;DHT22;5625;50.122;19.864;2023-05-07T08:13:05;9.50;99.90
11142;DHT22;5625;50.122;19.864;2023-05-07T08:15:33;9.50;99.90
11142;DHT22;5625;50.122;19.864;2023-05-07T08:18:02;9.50;99.90
11142;DHT22;5625;50.122;19.864;2023-05-07T08:20:30;9.40;99.90
11142;DHT22;5625;50.122;19.864;2023-05-07T08:22:58;9.40;99.90
11142;DHT22;5625;50.122;19.864;2023-05-07T08:25:26;9.40;99.90
11142;DHT22;5625;50.122;19.864;2023-05-07T08:27:55;9.40;99.90
11142;DHT22;5625;50.122;19.864;2023-05-07T08:30:23;9.30;99.90
11142;DHT22;5625;50.122;19.864;2023-05-07T08:32:51;9.40;99.90
11142;DHT22;5625;50.122;19.864;2023-05-07T08:35:20;9.30;99.90
11142;DHT22;5625;50.122;19.864;2023-05-07T08:37:48;9.30;99.90
11142;DHT22;5625;50.122;19.864;2023-05-07T08:40:16;9.30;99.90
11142;DHT22;5625;50.122;19.864;2023-05-07T08:42:48;9.20;99.90
11142;DHT22;5625;50.122;19.864;2023-05-07T08:45:20;9.20;99.90
11142;DHT22;5625;50.122;19.864;2023-05-07T08:47:52;9.20;99.90
11142;DHT22;5625;50.122;19.864;2023-05-07T08:50:23;9.20;99.90
11142;DHT22;5625;50.122;19.864;2023-05-07T08:52:54;9.20;99.90
11142;DHT22;5625;50.122;19.864;2023-05-07T08:55:23;9.20;99.90
11142;DHT22;5625;50.122;19.864;2023-05-07T08:57:51;9.20;99.90
11142;DHT22;5625;50.122;19.864;2023-05-07T09:00:24;9.20;99.90
11142;DHT22;5625;50.122;19.864;2023-05-07T09:02:52;9.10;99.90
11142;DHT22;5625;50.122;19.864;2023-05-07T09:05:21;9.10;99.90
11142;DHT22;5625;50.122;19.864;2023-05-07T09:07:49;9.10;99.90
11142;DHT22;5625;50.122;19.864;2023-05-07T09:10:20;9.10;99.90
11142;DHT22;5625;50.122;19.864;2023-05-07T09:12:49;9.10;99.90
11142;DHT22;5625;50.122;19.864;2023-05-07T09:15:18;9.10;99.90
11142;DHT22;5625;50.122;19.864;2023-05-07T09:17:47;9.10;99.90
11142;DHT22;5625;50.122;19.864;2023-05-07T09:20:16;9.00;99.90
11142;DHT22;5625;50.122;19.864;2023-05-07T09:22:44;9.10;99.90
11142;DHT22;5625;50.122;19.864;2023-05-07T09:25:12;9.10;99.90
11142;DHT22;5625;50.122;19.864;2023-05-07T09:27:43;9.10;99.90
11142;DHT22;5625;50.122;19.864;2023-05-07T09:30:13;9.00;99.90
11142;DHT22;5625;50.122;19.864;2023-05-07T09:32:41;9.00;99.90
11142;DHT22;5625;50.122;19.864;2023-05-07T09:35:16;9.10;99.90
11142;DHT22;5625;50.122;19.864;2023-05-07T09:37:46;9.20;99.90
11142;DHT22;5625;50.122;19.864;2023-05-07T09:40:20;9.20;99.90
11142;DHT22;5625;50.122;19.864;2023-05-07T09:42:49;9.20;99.90
11142;DHT22;5625;50.122;19.864;2023-05-07T09:45:25;9.20;99.90
11142;DHT22;5625;50.122;19.864;2023-05-07T09:47:55;9.20;99.90
11142;DHT22;5625;50.122;19.864;2023-05-07T09:50:27;9.20;99.90
11142;DHT22;5625;50.122;19.864;2023-05-07T09:52:56;9.20;99.90
11142;DHT22;5625;50.122;19.864;2023-05-07T09:55:25;9.20;99.90
11142;DHT22;5625;50.122;19.864;2023-05-07T09:57:54;9.20;99.90
11142;DHT22;5625;50.122;19.864;2023-05-07T10:00:22;9.20;99.90
11142;DHT22;5625;50.122;19.864;2023-05-07T10:02:52;9.30;99.90
11142;DHT22;5625;50.122;19.864;2023-05-07T10:05:21;9.30;99.90
11142;DHT22;5625;50.122;19.864;2023-05-07T10:07:53;9.20;99.90
11142;DHT22;5625;50.122;19.864;2023-05-07T10:10:22;9.10;99.90
11142;DHT22;5625;50.122;19.864;2023-05-07T10:12:51;9.10;99.90
11142;DHT22;5625;50.122;19.864;2023-05-07T10:15:20;9.10;99.90
11142;DHT22;5625;50.122;19.864;2023-05-07T10:17:53;9.10;99.90
11142;DHT22;5625;50.122;19.864;2023-05-07T10:20:22;9.20;99.90
11142;DHT22;5625;50.122;19.864;2023-05-07T10:22:53;9.20;99.90
11142;DHT22;5625;50.122;19.864;2023-05-07T10:25:26;9.20;99.90
11142;DHT22;5625;50.122;19.864;2023-05-07T10:27:59;9.10;99.90
11142;DHT22;5625;50.122;19.864;2023-05-07T10:30:37;9.10;99.90
11142;DHT22;5625;50.122;19.864;2023-05-07T10:33:10;9.20;99.90
11142;DHT22;5625;50.122;19.864;2023-05-07T10:35:41;9.20;99.90
11142;DHT22;5625;50.122;19.864;2023-05-07T10:38:11;9.20;99.90
11142;DHT22;5625;50.122;19.864;2023-05-07T10:40:39;9.10;99.90
11142;DHT22;5625;50.122;19.864;2023-05-07T10:43:08;9.10;99.90
11142;DHT22;5625;50.122;19.864;2023-05-07T10:45:36;9.20;99.90
11142;DHT22;5625;50.122;19.864;2023-05-07T10:48:09;9.20;99.90
11142;DHT22;5625;50.122;19.864;2023-05-07T10:51:19;9.20;99.90
11142;DHT22;5625;50.122;19.864;2023-05-07T10:54:20;9.20;99.90
11142;DHT22;5625;50.122;19.864;2023-05-07T10:56:50;9.20;99.90
11142;DHT22;5625;50.122;19.864;2023-05-07T10:59:33;9.30;99.20
11142;DHT22;5625;50.122;19.864;2023-05-07T11:02:10;9.40;94.50
11142;DHT22;5625;50.122;19.864;2023-05-07T11:04:41;9.50;93.60
11142;DHT22;5625;50.122;19.864;2023-05-07T11:07:30;9.60;93.00
11142;DHT22;5625;50.122;19.864;2023-05-07T11:10:04;9.60;81.20
11142;DHT22;5625;50.122;19.864;2023-05-07T11:12:54;9.60;81.50
11142;DHT22;5625;50.122;19.864;2023-05-07T11:15:47;9.50;74.90
11142;DHT22;5625;50.122;19.864;2023-05-07T11:18:16;9.60;79.20
11142;DHT22;5625;50.122;19.864;2023-05-07T11:20:55;9.50;81.60
11142;DHT22;5625;50.122;19.864;2023-05-07T11:26:45;9.50;70.20
11142;DHT22;5625;50.122;19.864;2023-05-07T11:29:15;9.60;75.10
11142;DHT22;5625;50.122;19.864;2023-05-07T11:31:50;9.60;67.70
11142;DHT22;5625;50.122;19.864;2023-05-07T11:34:23;9.60;71.50
11142;DHT22;5625;50.122;19.864;2023-05-07T11:36:52;9.60;51.60
11142;DHT22;5625;50.122;19.864;2023-05-07T11:39:27;9.70;56.40
11142;DHT22;5625;50.122;19.864;2023-05-07T11:41:58;9.80;58.80
11142;DHT22;5625;50.122;19.864;2023-05-07T11:44:42;9.80;53.90
11142;DHT22;5625;50.122;19.864;2023-05-07T11:47:10;9.80;50.70
11142;DHT22;5625;50.122;19.864;2023-05-07T11:49:38;9.80;48.90
11142;DHT22;5625;50.122;19.864;2023-05-07T11:52:07;9.80;49.50
11142;DHT22;5625;50.122;19.864;2023-05-07T11:54:35;9.80;37.60
11142;DHT22;5625;50.122;19.864;2023-05-07T11:57:05;9.80;35.80
11142;DHT22;5625;50.122;19.864;2023-05-07T11:59:38;9.80;43.20
11142;DHT22;5625;50.122;19.864;2023-05-07T12:02:08;9.80;45.90
11142;DHT22;5625;50.122;19.864;2023-05-07T12:04:38;9.80;38.50
11142;DHT22;5625;50.122;19.864;2023-05-07T12:07:10;9.90;49.50
11142;DHT22;5625;50.122;19.864;2023-05-07T12:09:38;9.90;39.10
11142;DHT22;5625;50.122;19.864;2023-05-07T12:12:08;9.90;27.40
11142;DHT22;5625;50.122;19.864;2023-05-07T12:14:38;9.90;25.90
11142;DHT22;5625;50.122;19.864;2023-05-07T12:17:07;9.90;11.10
11142;DHT22;5625;50.122;19.864;2023-05-07T12:19:36;9.90;11.00
11142;DHT22;5625;50.122;19.864;2023-05-07T12:22:05;9.90;15.10
11142;DHT22;5625;50.122;19.864;2023-05-07T12:24:45;10.00;11.70
11142;DHT22;5625;50.122;19.864;2023-05-07T12:27:15;10.00;10.10
11142;DHT22;5625;50.122;19.864;2023-05-07T12:29:44;10.00;7.80
11142;DHT22;5625;50.122;19.864;2023-05-07T12:32:13;10.00;10.90
11142;DHT22;5625;50.122;19.864;2023-05-07T12:34:42;10.00;5.10
11142;DHT22;5625;50.122;19.864;2023-05-07T12:37:11;9.90;1.00
11142;DHT22;5625;50.122;19.864;2023-05-07T12:39:44;9.90;7.60
11142;DHT22;5625;50.122;19.864;2023-05-07T12:42:16;9.80;12.30
11142;DHT22;5625;50.122;19.864;2023-05-07T12:44:50;9.80;22.00
11142;DHT22;5625;50.122;19.864;2023-05-07T12:47:18;9.70;17.30
11142;DHT22;5625;50.122;19.864;2023-05-07T12:49:48;9.80;18.40
11142;DHT22;5625;50.122;19.864;2023-05-07T12:52:16;9.80;19.90
11142;DHT22;5625;50.122;19.864;2023-05-07T12:54:44;9.80;19.80
11142;DHT22;5625;50.122;19.864;2023-05-07T12:57:13;9.80;9.60
11142;DHT22;5625;50.122;19.864;2023-05-07T12:59:42;9.80;17.60
11142;DHT22;5625;50.122;19.864;2023-05-07T13:02:10;9.70;11.60
11142;DHT22;5625;50.122;19.864;2023-05-07T13:04:38;9.70;24.00
11142;DHT22;5625;50.122;19.864;2023-05-07T13:07:06;9.70;25.80
11142;DHT22;5625;50.122;19.864;2023-05-07T13:09:35;9.80;26.90
11142;DHT22;5625;50.122;19.864;2023-05-07T13:12:04;9.80;33.50
11142;DHT22;5625;50.122;19.864;2023-05-07T13:14:32;9.80;26.60
11142;DHT22;5625;50.122;19.864;2023-05-07T13:17:02;9.80;19.10
11142;DHT22;5625;50.122;19.864;2023-05-07T13:19:32;9.80;13.60
11142;DHT22;5625;50.122;19.864;2023-05-07T13:22:00;9.90;12.90
11142;DHT22;5625;50.122;19.864;2023-05-07T13:24:31;9.90;3.20
11142;DHT22;5625;50.122;19.864;2023-05-07T13:26:59;9.90;7.90
11142;DHT22;5625;50.122;19.864;2023-05-07T13:29:27;10.00;4.70
11142;DHT22;5625;50.122;19.864;2023-05-07T13:31:57;10.00;1.00
11142;DHT22;5625;50.122;19.864;2023-05-07T13:34:27;10.10;1.00
11142;DHT22;5625;50.122;19.864;2023-05-07T13:36:55;10.10;1.00
11142;DHT22;5625;50.122;19.864;2023-05-07T13:39:25;10.10;1.00
11142;DHT22;5625;50.122;19.864;2023-05-07T13:41:53;10.10;1.00
11142;DHT22;5625;50.122;19.864;2023-05-07T13:44:21;10.00;1.00
11142;DHT22;5625;50.122;19.864;2023-05-07T13:46:52;10.00;1.00
11142;DHT22;5625;50.122;19.864;2023-05-07T13:49:20;9.90;1.00
11142;DHT22;5625;50.122;19.864;2023-05-07T13:51:52;9.80;1.00
11142;DHT22;5625;50.122;19.864;2023-05-07T13:54:20;9.80;1.00
11142;DHT22;5625;50.122;19.864;2023-05-07T13:56:48;9.80;1.00
11142;DHT22;5625;50.122;19.864;2023-05-07T13:59:16;9.70;1.00
11142;DHT22;5625;50.122;19.864;2023-05-07T14:01:44;9.70;1.00
11142;DHT22;5625;50.122;19.864;2023-05-07T14:04:15;9.70;1.00
11142;DHT22;5625;50.122;19.864;2023-05-07T14:06:43;9.70;1.00
11142;DHT22;5625;50.122;19.864;2023-05-07T14:09:15;9.60;7.10
11142;DHT22;5625;50.122;19.864;2023-05-07T14:11:44;9.60;4.70
11142;DHT22;5625;50.122;19.864;2023-05-07T14:14:14;9.50;10.30
11142;DHT22;5625;50.122;19.864;2023-05-07T14:16:42;9.50;22.20
11142;DHT22;5625;50.122;19.864;2023-05-07T14:19:10;9.90;51.50
11142;DHT22;5625;50.122;19.864;2023-05-07T14:21:41;9.80;5.40
11142;DHT22;5625;50.122;19.864;2023-05-07T14:24:09;9.60;1.90
11142;DHT22;5625;50.122;19.864;2023-05-07T14:26:44;9.50;9.30
11142;DHT22;5625;50.122;19.864;2023-05-07T14:29:12;9.50;14.30
11142;DHT22;5625;50.122;19.864;2023-05-07T14:31:44;9.50;13.50
11142;DHT22;5625;50.122;19.864;2023-05-07T14:34:12;9.50;18.60
11142;DHT22;5625;50.122;19.864;2023-05-07T14:36:40;9.50;19.40
11142;DHT22;5625;50.122;19.864;2023-05-07T14:39:11;9.50;23.50
11142;DHT22;5625;50.122;19.864;2023-05-07T14:41:41;9.40;27.30
11142;DHT22;5625;50.122;19.864;2023-05-07T14:44:09;9.30;35.00
11142;DHT22;5625;50.122;19.864;2023-05-07T14:46:37;9.30;40.90
11142;DHT22;5625;50.122;19.864;2023-05-07T14:49:06;9.20;49.30
11142;DHT22;5625;50.122;19.864;2023-05-07T14:51:40;9.20;53.80
11142;DHT22;5625;50.122;19.864;2023-05-07T14:54:08;9.20;48.70
11142;DHT22;5625;50.122;19.864;2023-05-07T14:56:39;9.20;53.20
11142;DHT22;5625;50.122;19.864;2023-05-07T14:59:11;9.20;58.70
11142;DHT22;5625;50.122;19.864;2023-05-07T15:01:39;9.20;43.30
11142;DHT22;5625;50.122;19.864;2023-05-07T15:04:12;9.20;41.50
11142;DHT22;5625;50.122;19.864;2023-05-07T15:06:40;9.20;42.50
11142;DHT22;5625;50.122;19.864;2023-05-07T15:09:08;9.20;47.60
11142;DHT22;5625;50.122;19.864;2023-05-07T15:11:37;9.20;47.00
11142;DHT22;5625;50.122;19.864;2023-05-07T15:14:05;9.20;43.90
11142;DHT22;5625;50.122;19.864;2023-05-07T15:16:34;9.00;53.50
11142;DHT22;5625;50.122;19.864;2023-05-07T15:19:02;9.00;73.70
11142;DHT22;5625;50.122;19.864;2023-05-07T15:21:30;8.90;82.00
11142;DHT22;5625;50.122;19.864;2023-05-07T15:24:01;8.80;84.60
11142;DHT22;5625;50.122;19.864;2023-05-07T15:26:29;8.90;90.70
11142;DHT22;5625;50.122;19.864;2023-05-07T15:28:57;8.80;89.40
11142;DHT22;5625;50.122;19.864;2023-05-07T15:31:25;8.70;93.40
11142;DHT22;5625;50.122;19.864;2023-05-07T15:33:54;8.70;97.00
11142;DHT22;5625;50.122;19.864;2023-05-07T15:36:23;8.70;99.00
11142;DHT22;5625;50.122;19.864;2023-05-07T15:38:52;8.70;99.50
11142;DHT22;5625;50.122;19.864;2023-05-07T15:41:21;8.70;99.90
11142;DHT22;5625;50.122;19.864;2023-05-07T15:43:51;8.60;97.70
11142;DHT22;5625;50.122;19.864;2023-05-07T15:46:21;8.70;97.90
11142;DHT22;5625;50.122;19.864;2023-05-07T15:48:50;8.70;96.70
11142;DHT22;5625;50.122;19.864;2023-05-07T15:51:20;8.70;96.40
11142;DHT22;5625;50.122;19.864;2023-05-07T15:53:48;8.70;96.90
11142;DHT22;5625;50.122;19.864;2023-05-07T15:56:17;8.80;97.40
11142;DHT22;5625;50.122;19.864;2023-05-07T15:58:45;8.80;99.30
11142;DHT22;5625;50.122;19.864;2023-05-07T16:01:14;8.80;96.40